createdAt,value
2018-09-27T05:03:01.432Z,9.70
2018-09-27T05:05:33.837Z,9.73
2018-09-27T05:08:06.269Z,7.17
2018-09-27T05:10:38.690Z,11.03
2018-09-27T05:13:11.109Z,10.27
2018-09-27T05:15:43.592Z,10.00
2018-09-27T05:18:15.926Z,8.67
2018-09-27T05:20:48.335Z,6.40
2018-09-27T05:23:20.761Z,5.83
2018-09-27T05:25:53.161Z,9.67
2018-09-27T05:28:25.586Z,7.03
2018-09-27T05:30:57.994Z,8.50
2018-09-27T05:33:30.504Z,7.40
2018-09-27T05:36:02.858Z,7.73
2018-09-27T05:38:35.274Z,5.83
2018-09-27T05:41:07.698Z,8.03
2018-09-27T05:43:40.118Z,6.90
2018-09-27T05:46:12.549Z,12.67
2018-09-27T05:48:44.982Z,8.27
2018-09-27T05:51:17.413Z,9.50
2018-09-27T05:53:49.854Z,9.90
2018-09-27T05:56:22.261Z,11.53
2018-09-27T05:58:54.693Z,10.33
2018-09-27T06:01:27.098Z,7.53
2018-09-27T06:03:59.518Z,10.07
2018-09-27T06:06:31.938Z,11.03
2018-09-27T06:09:07.473Z,7.17
2018-09-27T06:11:39.902Z,14.53
2018-09-27T06:14:12.318Z,13.07
2018-09-27T06:16:44.738Z,11.13
2018-09-27T06:19:17.244Z,12.40
2018-09-27T06:21:49.617Z,7.27
2018-09-27T06:24:22.054Z,6.47
2018-09-27T06:26:54.473Z,5.90
2018-09-27T06:29:26.970Z,8.00
2018-09-27T06:31:59.401Z,8.87
2018-09-27T06:34:32.133Z,5.80
2018-09-27T06:37:04.550Z,6.97
2018-09-27T06:39:36.965Z,9.27
2018-09-27T06:42:09.369Z,7.20
2018-09-27T06:44:41.881Z,9.17
2018-09-27T06:47:14.273Z,9.30
2018-09-27T06:49:46.702Z,6.30
2018-09-27T06:52:19.197Z,7.83
2018-09-27T06:54:52.019Z,6.87
2018-09-27T06:57:24.355Z,7.73
2018-09-27T06:59:56.789Z,6.23
2018-09-27T07:02:29.217Z,8.87
2018-09-27T07:05:01.719Z,6.07
2018-09-27T07:07:34.050Z,5.83
2018-09-27T07:10:07.315Z,6.53
2018-09-27T07:12:39.748Z,5.47
2018-09-27T07:15:12.172Z,4.80
2018-09-27T07:17:44.591Z,7.30
2018-09-27T07:20:17.054Z,4.53
2018-09-27T07:22:49.433Z,6.17
2018-09-27T07:25:21.858Z,5.67
2018-09-27T07:27:54.294Z,6.43
2018-09-27T07:30:26.730Z,7.43
2018-09-27T07:32:59.135Z,8.73
2018-09-27T07:35:31.557Z,6.50
2018-09-27T07:38:03.990Z,7.43
2018-09-27T07:40:36.429Z,7.00
2018-09-27T07:43:08.854Z,8.70
2018-09-27T07:45:41.283Z,6.77
2018-09-27T07:48:13.689Z,8.13
2018-09-27T07:50:46.133Z,6.00
2018-09-27T07:53:18.558Z,8.63
2018-09-27T07:55:50.977Z,6.70
2018-09-27T07:58:23.396Z,6.37
2018-09-27T08:00:55.834Z,9.53
2018-09-27T08:03:28.253Z,6.30
2018-09-27T08:06:00.689Z,5.30
2018-09-27T08:08:33.129Z,6.93
2018-09-27T08:11:05.617Z,7.13
2018-09-27T08:13:37.984Z,7.90
2018-09-27T08:16:10.417Z,5.87
2018-09-27T08:18:42.853Z,10.40
2018-09-27T08:21:15.416Z,10.87
2018-09-27T08:23:47.750Z,7.63
2018-09-27T08:26:20.178Z,5.33
2018-09-27T08:28:52.601Z,6.90
2018-09-27T08:31:25.054Z,9.17
2018-09-27T08:33:57.465Z,7.93
2018-09-27T08:36:29.898Z,7.43
2018-09-27T08:39:02.337Z,10.23
2018-09-27T08:41:34.858Z,9.40
2018-09-27T08:44:07.277Z,9.03
2018-09-27T08:46:39.693Z,7.50
2018-09-27T08:49:12.149Z,11.63
2018-09-27T08:51:44.562Z,7.20
2018-09-27T08:54:16.977Z,7.07
2018-09-27T08:56:49.406Z,5.37
2018-09-27T08:59:21.821Z,4.97
2018-09-27T09:01:54.486Z,5.07
2018-09-27T09:04:27.145Z,6.43
2018-09-27T09:06:59.581Z,5.53
2018-09-27T09:09:32.054Z,10.93
2018-09-27T09:12:04.506Z,7.20
2018-09-27T09:14:36.878Z,9.33
2018-09-27T09:17:09.309Z,8.43
2018-09-27T09:19:41.782Z,5.67
2018-09-27T09:22:14.158Z,8.03
2018-09-27T09:24:46.581Z,9.87
2018-09-27T09:27:19.013Z,5.33
2018-09-27T09:29:51.482Z,9.93
2018-09-27T09:32:23.934Z,7.60
2018-09-27T09:34:56.341Z,8.07
2018-09-27T09:37:29.062Z,7.57
2018-09-27T09:40:01.535Z,7.40
2018-09-27T09:42:33.920Z,10.67
2018-09-27T09:45:06.341Z,5.07
2018-09-27T09:47:38.749Z,7.23
2018-09-27T09:50:11.245Z,11.87
2018-09-27T09:52:43.602Z,7.43
2018-09-27T09:55:16.018Z,10.67
2018-09-27T09:57:48.446Z,9.93
2018-09-27T10:00:20.872Z,7.80
2018-09-27T10:02:53.293Z,9.47
2018-09-27T10:05:25.708Z,9.87
2018-09-27T10:07:58.154Z,10.33
2018-09-27T10:10:30.581Z,8.53
2018-09-27T10:13:03.010Z,14.87
2018-09-27T10:15:35.421Z,10.43
2018-09-27T10:18:07.902Z,9.77
2018-09-27T10:20:40.305Z,9.20
2018-09-27T10:23:12.721Z,8.60
2018-09-27T10:25:45.147Z,8.57
2018-09-27T10:28:17.565Z,6.90
2018-09-27T10:30:49.975Z,5.87
2018-09-27T10:33:22.392Z,7.23
2018-09-27T10:35:54.802Z,7.70
2018-09-27T10:38:27.251Z,7.60
2018-09-27T10:40:59.662Z,6.33
2018-09-27T10:43:32.423Z,7.27
2018-09-27T10:46:04.825Z,6.90
2018-09-27T10:48:37.247Z,7.03
2018-09-27T10:51:09.684Z,7.03
2018-09-27T10:53:42.105Z,6.33
2018-09-27T10:56:14.556Z,11.83
2018-09-27T10:58:46.977Z,8.47
2018-09-27T11:01:19.439Z,6.23
2018-09-27T11:03:51.874Z,6.03
2018-09-27T11:06:24.284Z,8.33
2018-09-27T11:08:56.683Z,4.57
2018-09-27T11:11:29.191Z,5.00
2018-09-27T11:14:01.565Z,9.47
2018-09-27T11:16:34.032Z,6.40
2018-09-27T11:19:06.570Z,5.93
2018-09-27T11:21:38.993Z,6.20
2018-09-27T11:24:11.421Z,4.70
2018-09-27T11:26:43.860Z,6.20
2018-09-27T11:29:16.278Z,6.67
2018-09-27T11:31:48.717Z,6.13
2018-09-27T11:34:21.128Z,4.83
2018-09-27T11:36:53.553Z,6.10
2018-09-27T11:39:25.953Z,6.00
2018-09-27T11:41:58.394Z,6.20
2018-09-27T11:44:30.827Z,6.57
2018-09-27T11:47:03.267Z,4.23
2018-09-27T11:49:35.737Z,3.90
2018-09-27T11:52:08.118Z,5.50
2018-09-27T11:54:40.594Z,4.67
2018-09-27T11:57:13.010Z,6.50
2018-09-27T11:59:45.405Z,3.93
2018-09-27T12:02:17.836Z,6.53
2018-09-27T12:04:50.324Z,4.97
2018-09-27T12:07:22.809Z,6.43
2018-09-27T12:09:55.159Z,5.63
2018-09-27T12:12:27.614Z,4.47
2018-09-27T12:15:00.047Z,6.47
2018-09-27T12:17:32.556Z,5.53
2018-09-27T12:20:05.098Z,5.60
2018-09-27T12:22:37.459Z,4.53
2018-09-27T12:25:09.861Z,6.10
2018-09-27T12:27:42.310Z,5.57
2018-09-27T12:30:14.729Z,5.90
2018-09-27T12:32:47.174Z,4.33
2018-09-27T12:35:19.582Z,3.87
2018-09-27T12:37:52.342Z,3.63
2018-09-27T12:40:24.890Z,4.03
2018-09-27T12:42:57.483Z,4.10
2018-09-27T12:45:29.971Z,3.67
2018-09-27T12:48:02.442Z,5.70
2018-09-27T12:50:34.930Z,5.23
2018-09-27T12:53:07.351Z,4.37
2018-09-27T12:55:39.745Z,3.90
2018-09-27T12:58:12.189Z,2.77
2018-09-27T13:00:44.606Z,3.20
2018-09-27T13:03:17.059Z,4.67
2018-09-27T13:05:49.559Z,4.67
2018-09-27T13:08:21.984Z,6.23
2018-09-27T13:10:54.398Z,5.60
2018-09-27T13:13:26.981Z,3.73
2018-09-27T13:15:59.696Z,6.37
2018-09-27T13:18:32.100Z,4.27
2018-09-27T13:21:04.509Z,2.73
2018-09-27T13:23:36.937Z,5.53
2018-09-27T13:26:09.345Z,3.33
2018-09-27T13:28:41.950Z,4.87
2018-09-27T13:31:14.182Z,3.10
2018-09-27T13:33:46.605Z,4.63
2018-09-27T13:36:19.012Z,3.67
2018-09-27T13:38:51.462Z,4.03
2018-09-27T13:41:23.832Z,4.27
2018-09-27T13:43:56.260Z,3.17
2018-09-27T13:46:28.665Z,3.63
2018-09-27T13:49:01.101Z,3.40
2018-09-27T13:51:33.509Z,5.40
2018-09-27T13:54:05.754Z,3.07
2018-09-27T13:56:38.217Z,3.97
2018-09-27T13:59:10.646Z,5.73
2018-09-27T14:01:43.067Z,3.70
2018-09-27T14:04:15.485Z,4.27
2018-09-27T14:06:47.897Z,3.77
2018-09-27T14:09:20.330Z,3.07
2018-09-27T14:11:52.756Z,3.33
2018-09-27T14:14:25.205Z,2.93
2018-09-27T14:16:57.590Z,3.20
2018-09-27T14:19:29.999Z,3.97
2018-09-27T14:22:02.405Z,2.60
2018-09-27T14:24:34.847Z,5.07
2018-09-27T14:27:07.253Z,4.13
2018-09-27T14:29:39.685Z,4.03
2018-09-27T14:32:12.122Z,5.10
2018-09-27T14:34:44.510Z,3.90
2018-09-27T14:37:17.030Z,2.73
2018-09-27T14:39:49.457Z,3.63
2018-09-27T14:42:21.861Z,2.43
2018-09-27T14:44:54.281Z,2.90
2018-09-27T14:47:26.737Z,7.00
2018-09-27T14:49:59.154Z,4.03
2018-09-27T14:52:31.565Z,3.30
2018-09-27T14:55:04.083Z,2.33
2018-09-27T14:57:36.449Z,5.10
2018-09-27T15:00:08.895Z,2.27
2018-09-27T15:02:41.302Z,3.73
2018-09-27T15:05:13.724Z,3.40
2018-09-27T15:07:46.137Z,4.23
2018-09-27T15:10:18.685Z,3.70
2018-09-27T15:12:51.101Z,5.83
2018-09-27T15:15:23.526Z,3.63
2018-09-27T15:17:56.010Z,4.80
2018-09-27T15:20:28.370Z,3.37
2018-09-27T15:23:00.794Z,3.67
2018-09-27T15:25:33.225Z,4.23
2018-09-27T15:28:05.742Z,5.17
2018-09-27T15:30:38.159Z,4.40
2018-09-27T15:33:10.568Z,4.03
2018-09-27T15:35:42.990Z,4.27
2018-09-27T15:38:15.396Z,6.33
2018-09-27T15:40:47.825Z,8.13
2018-09-27T15:43:20.274Z,5.80
2018-09-27T15:45:52.710Z,5.50
2018-09-27T15:48:25.130Z,10.50
2018-09-27T15:50:57.548Z,3.70
2018-09-27T15:53:30.013Z,5.33
2018-09-27T15:56:02.458Z,5.63
2018-09-27T15:58:34.901Z,4.97
2018-09-27T16:01:07.316Z,6.03
2018-09-27T16:03:39.838Z,4.87
2018-09-27T16:06:12.273Z,4.57
2018-09-27T16:08:44.707Z,3.73
2018-09-27T16:11:17.545Z,6.03
2018-09-27T16:13:49.964Z,2.50
2018-09-27T16:16:22.377Z,6.40
2018-09-27T16:18:54.806Z,4.73
2018-09-27T16:21:27.218Z,5.30
2018-09-27T16:23:59.665Z,3.20
2018-09-27T16:26:32.073Z,7.90
2018-09-27T16:29:04.502Z,5.17
2018-09-27T16:31:36.946Z,7.03
2018-09-27T16:34:09.349Z,6.80
2018-09-27T16:36:41.776Z,5.00
2018-09-27T16:39:14.195Z,6.07
2018-09-27T16:41:46.614Z,5.80
2018-09-27T16:44:19.067Z,4.97
2018-09-27T16:46:51.722Z,4.60
2018-09-27T16:49:24.131Z,5.13
2018-09-27T16:51:56.601Z,4.20
2018-09-27T16:54:29.001Z,7.70
2018-09-27T16:57:01.425Z,6.70
2018-09-27T16:59:33.902Z,4.20
2018-09-27T17:02:06.328Z,5.47
2018-09-27T17:04:38.746Z,4.50
2018-09-27T17:07:11.193Z,8.60
2018-09-27T17:09:43.626Z,4.83
2018-09-27T17:12:16.061Z,4.07
2018-09-27T17:14:48.521Z,6.40
2018-09-27T17:17:20.974Z,8.57
2018-09-27T17:19:53.393Z,7.77
2018-09-27T17:22:25.873Z,5.80
2018-09-27T17:24:58.292Z,6.90
2018-09-27T17:27:30.755Z,5.73
2018-09-27T17:30:03.224Z,6.10
2018-09-27T17:32:35.642Z,6.70
2018-09-27T17:35:08.061Z,4.67
2018-09-27T17:37:40.594Z,6.80
2018-09-27T17:40:12.995Z,7.97
2018-09-27T17:42:45.358Z,7.03
2018-09-27T17:45:17.797Z,5.87
2018-09-27T17:47:50.294Z,3.37
2018-09-27T17:50:22.759Z,5.07
2018-09-27T17:52:55.244Z,6.23
2018-09-27T17:55:27.680Z,5.33
2018-09-27T17:58:00.169Z,8.07
2018-09-27T18:00:32.597Z,9.20
2018-09-27T18:03:05.017Z,7.80
2018-09-27T18:05:37.501Z,6.33
2018-09-27T18:08:10.002Z,7.97
2018-09-27T18:10:42.552Z,8.90
2018-09-27T18:13:15.286Z,8.03
2018-09-27T18:15:47.772Z,10.90
2018-09-27T18:18:20.210Z,8.07
2018-09-27T18:20:53.040Z,7.73
2018-09-27T18:23:25.657Z,9.20
2018-09-27T18:25:58.090Z,7.00
2018-09-27T18:28:30.614Z,7.97
2018-09-27T18:31:03.469Z,7.17
2018-09-27T18:33:36.030Z,6.80
2018-09-27T18:36:08.459Z,8.23
2018-09-27T18:38:40.921Z,9.33
2018-09-27T18:41:13.762Z,9.73
2018-09-27T18:43:46.295Z,6.00
2018-09-27T18:46:19.109Z,7.07
2018-09-27T18:48:52.132Z,8.27
2018-09-27T18:51:24.895Z,7.10
2018-09-27T18:53:57.245Z,9.93
2018-09-27T18:56:29.723Z,11.10
2018-09-27T18:59:02.157Z,11.80
2018-09-27T19:01:34.618Z,12.67
2018-09-27T19:04:07.058Z,11.93
2018-09-27T19:06:39.482Z,10.47
2018-09-27T19:09:11.986Z,12.00
2018-09-27T19:11:44.487Z,13.73
2018-09-27T19:14:16.969Z,12.33
